createdAt,value
2023-02-02T00:00:24.333Z,2.63
2023-02-02T00:01:24.323Z,2.65
2023-02-02T00:02:24.373Z,2.65
2023-02-02T00:03:24.305Z,2.66
2023-02-02T00:04:24.285Z,2.65
2023-02-02T00:05:24.582Z,2.65
2023-02-02T00:06:24.256Z,2.65
2023-02-02T00:07:24.247Z,2.66
2023-02-02T00:08:24.242Z,2.65
2023-02-02T00:09:24.203Z,2.66
2023-02-02T00:10:24.216Z,2.66
2023-02-02T00:11:24.183Z,2.66
2023-02-02T00:12:24.172Z,2.66
2023-02-02T00:13:24.172Z,2.66
2023-02-02T00:14:24.153Z,2.68
2023-02-02T00:15:24.504Z,2.68
2023-02-02T00:16:24.175Z,2.66
2023-02-02T00:17:24.103Z,2.68
2023-02-02T00:18:24.126Z,2.66
2023-02-02T00:19:24.081Z,2.66
2023-02-02T00:20:24.077Z,2.65
2023-02-02T00:21:24.060Z,2.65
2023-02-02T00:22:24.047Z,2.62
2023-02-02T00:23:24.042Z,2.63
2023-02-02T00:24:24.041Z,2.62
2023-02-02T00:25:24.340Z,2.61
2023-02-02T00:26:24.001Z,2.61
2023-02-02T00:27:23.987Z,2.58
2023-02-02T00:28:23.983Z,2.56
2023-02-02T00:29:23.947Z,2.56
2023-02-02T00:30:23.984Z,2.56
2023-02-02T00:31:23.958Z,2.58
2023-02-02T00:32:23.920Z,2.56
2023-02-02T00:33:23.908Z,2.55
2023-02-02T00:34:23.904Z,2.53
2023-02-02T00:35:24.025Z,2.55
2023-02-02T00:36:23.872Z,2.53
2023-02-02T00:37:23.848Z,2.53
2023-02-02T00:38:23.856Z,2.51
2023-02-02T00:39:23.816Z,2.51
2023-02-02T00:40:23.809Z,2.51
2023-02-02T00:41:23.807Z,2.51
2023-02-02T00:42:23.787Z,2.55
2023-02-02T00:43:23.779Z,2.55
2023-02-02T00:44:23.777Z,2.56
2023-02-02T00:45:24.097Z,2.56
2023-02-02T00:46:23.749Z,2.56
2023-02-02T00:47:23.716Z,2.56
2023-02-02T00:48:23.726Z,2.58
2023-02-02T00:49:23.697Z,2.58
2023-02-02T00:50:23.690Z,2.58
2023-02-02T00:51:23.668Z,2.58
2023-02-02T00:52:23.665Z,2.56
2023-02-02T00:53:23.652Z,2.56
2023-02-02T00:54:23.636Z,2.58
2023-02-02T00:55:23.976Z,2.58
2023-02-02T00:56:23.605Z,2.58
2023-02-02T00:57:23.593Z,2.58
2023-02-02T00:58:23.596Z,2.59
2023-02-02T00:59:23.569Z,2.61
2023-02-02T01:00:23.542Z,2.61
2023-02-02T01:01:23.591Z,2.62
2023-02-02T01:02:23.558Z,2.61
2023-02-02T01:03:23.528Z,2.62
2023-02-02T01:04:23.514Z,2.63
2023-02-02T01:05:23.791Z,2.62
2023-02-02T01:06:23.474Z,2.63
2023-02-02T01:07:23.463Z,2.62
2023-02-02T01:08:23.459Z,2.62
2023-02-02T01:09:23.431Z,2.62
2023-02-02T01:10:23.424Z,2.62
2023-02-02T01:11:23.411Z,2.61
2023-02-02T01:12:23.400Z,2.59
2023-02-02T01:13:23.392Z,2.59
2023-02-02T01:14:23.375Z,2.61
2023-02-02T01:15:23.599Z,2.59
2023-02-02T01:16:23.448Z,2.61
2023-02-02T01:17:23.328Z,2.59
2023-02-02T01:18:23.350Z,2.61
2023-02-02T01:19:23.300Z,2.62
2023-02-02T01:20:23.293Z,2.61
2023-02-02T01:21:23.281Z,2.61
2023-02-02T01:22:23.265Z,2.62
2023-02-02T01:23:23.260Z,2.62
2023-02-02T01:24:23.247Z,2.61
2023-02-02T01:25:23.561Z,2.61
2023-02-02T01:26:23.248Z,2.61
2023-02-02T01:27:23.207Z,2.62
2023-02-02T01:28:23.195Z,2.62
2023-02-02T01:29:23.174Z,2.62
2023-02-02T01:30:23.175Z,2.62
2023-02-02T01:31:23.199Z,2.62
2023-02-02T01:32:23.148Z,2.63
2023-02-02T01:33:23.148Z,2.62
2023-02-02T01:34:23.127Z,2.62
2023-02-02T01:35:23.607Z,2.63
2023-02-02T01:36:23.086Z,2.65
2023-02-02T01:37:23.067Z,2.66
2023-02-02T01:38:23.084Z,2.68
2023-02-02T01:39:23.051Z,2.69
2023-02-02T01:40:23.033Z,2.71
2023-02-02T01:41:23.015Z,2.73
2023-02-02T01:42:23.011Z,2.74
2023-02-02T01:43:23.018Z,2.76
2023-02-02T01:44:22.988Z,2.76
2023-02-02T01:45:23.371Z,2.77
2023-02-02T01:46:22.953Z,2.79
2023-02-02T01:47:22.955Z,2.81
2023-02-02T01:48:22.931Z,2.81
2023-02-02T01:49:22.920Z,2.81
2023-02-02T01:50:22.911Z,2.83
2023-02-02T01:51:22.881Z,2.83
2023-02-02T01:52:22.879Z,2.83
2023-02-02T01:53:22.863Z,2.86
2023-02-02T01:54:22.864Z,2.84
2023-02-02T01:55:23.014Z,2.84
2023-02-02T01:56:22.831Z,2.86
2023-02-02T01:57:22.807Z,2.84
2023-02-02T01:58:22.812Z,2.86
2023-02-02T01:59:22.797Z,2.84
2023-02-02T02:00:22.769Z,2.84
2023-02-02T02:01:22.793Z,2.83
2023-02-02T02:02:22.812Z,2.81
2023-02-02T02:03:22.742Z,2.81
2023-02-02T02:04:22.727Z,2.81
2023-02-02T02:05:23.026Z,2.81
2023-02-02T02:06:22.715Z,2.81
2023-02-02T02:07:22.691Z,2.80
2023-02-02T02:08:22.677Z,2.79
2023-02-02T02:09:22.669Z,2.79
2023-02-02T02:10:22.636Z,2.77
2023-02-02T02:11:22.646Z,2.74
2023-02-02T02:12:22.622Z,2.74
2023-02-02T02:13:22.614Z,2.73
2023-02-02T02:14:22.607Z,2.73
2023-02-02T02:15:22.918Z,2.73
2023-02-02T02:16:22.575Z,2.71
2023-02-02T02:17:22.553Z,2.73
2023-02-02T02:18:22.536Z,2.71
2023-02-02T02:19:22.541Z,2.71
2023-02-02T02:20:22.516Z,2.71
2023-02-02T02:21:22.511Z,2.71
2023-02-02T02:22:22.482Z,2.71
2023-02-02T02:23:22.482Z,2.68
2023-02-02T02:24:22.473Z,2.69
2023-02-02T02:25:22.840Z,2.66
2023-02-02T02:26:22.446Z,2.69
2023-02-02T02:27:22.422Z,2.68
2023-02-02T02:28:22.403Z,2.68
2023-02-02T02:29:22.433Z,2.66
2023-02-02T02:30:22.381Z,2.66
2023-02-02T02:31:22.467Z,2.66
2023-02-02T02:32:22.360Z,2.63
2023-02-02T02:33:22.342Z,2.63
2023-02-02T02:34:22.352Z,2.62
2023-02-02T02:35:22.512Z,2.62
2023-02-02T02:36:22.307Z,2.62
2023-02-02T02:37:22.290Z,2.63
2023-02-02T02:38:22.283Z,2.61
2023-02-02T02:39:22.291Z,2.62
2023-02-02T02:40:22.254Z,2.61
2023-02-02T02:41:22.241Z,2.62
2023-02-02T02:42:22.227Z,2.61
2023-02-02T02:43:22.211Z,2.59
2023-02-02T02:44:22.218Z,2.61
2023-02-02T02:45:22.459Z,2.62
2023-02-02T02:46:22.231Z,2.62
2023-02-02T02:47:22.176Z,2.63
2023-02-02T02:48:22.148Z,2.63
2023-02-02T02:49:22.139Z,2.65
2023-02-02T02:50:22.124Z,2.65
2023-02-02T02:51:22.121Z,2.63
2023-02-02T02:52:22.100Z,2.63
2023-02-02T02:53:22.080Z,2.62
2023-02-02T02:54:22.080Z,2.63
2023-02-02T02:55:22.360Z,2.62
2023-02-02T02:56:22.059Z,2.62
2023-02-02T02:57:22.035Z,2.62
2023-02-02T02:58:22.016Z,2.63
2023-02-02T02:59:22.008Z,2.65
2023-02-02T03:00:21.998Z,2.66
2023-02-02T03:01:22.047Z,2.68
2023-02-02T03:02:22.003Z,2.69
2023-02-02T03:03:21.965Z,2.73
2023-02-02T03:04:21.953Z,2.76
2023-02-02T03:05:22.305Z,2.74
2023-02-02T03:06:21.924Z,2.79
2023-02-02T03:07:21.894Z,2.80
2023-02-02T03:08:21.899Z,2.83
2023-02-02T03:09:21.875Z,2.86
2023-02-02T03:10:21.861Z,2.86
2023-02-02T03:11:21.841Z,2.89
2023-02-02T03:12:21.835Z,2.89
2023-02-02T03:13:21.824Z,2.90
2023-02-02T03:14:21.833Z,2.90
2023-02-02T03:15:22.195Z,2.94
2023-02-02T03:16:21.782Z,2.94
2023-02-02T03:17:21.770Z,2.95
2023-02-02T03:18:21.750Z,2.97
2023-02-02T03:19:21.748Z,2.98
2023-02-02T03:20:21.728Z,2.98
2023-02-02T03:21:21.719Z,2.98
2023-02-02T03:22:21.712Z,2.98
2023-02-02T03:23:21.680Z,2.99
2023-02-02T03:24:21.681Z,3.01
2023-02-02T03:25:21.742Z,3.01
2023-02-02T03:26:21.721Z,2.99
2023-02-02T03:27:21.639Z,3.02
2023-02-02T03:28:21.629Z,3.01
2023-02-02T03:29:21.623Z,3.01
2023-02-02T03:30:21.609Z,2.99
2023-02-02T03:31:21.621Z,2.98
2023-02-02T03:32:21.588Z,2.99
2023-02-02T03:33:21.548Z,2.98
2023-02-02T03:34:21.565Z,2.98
2023-02-02T03:35:21.534Z,2.95
2023-02-02T03:36:21.519Z,2.97
2023-02-02T03:37:21.504Z,2.95
2023-02-02T03:38:21.574Z,2.97
2023-02-02T03:39:21.521Z,2.97
2023-02-02T03:40:21.480Z,2.95
2023-02-02T03:41:21.455Z,2.97
2023-02-02T03:42:21.446Z,2.95
2023-02-02T03:43:21.432Z,2.97
2023-02-02T03:44:21.426Z,2.97
2023-02-02T03:45:21.407Z,2.97
2023-02-02T03:46:21.428Z,2.95
2023-02-02T03:47:21.379Z,2.95
2023-02-02T03:48:21.376Z,2.97
2023-02-02T03:49:21.369Z,2.97
2023-02-02T03:50:21.343Z,2.97
2023-02-02T03:51:21.317Z,2.97
2023-02-02T03:52:21.314Z,2.97
2023-02-02T03:53:21.306Z,2.98
2023-02-02T03:54:21.298Z,2.98
2023-02-02T03:55:21.283Z,2.98
2023-02-02T03:56:21.263Z,2.97
2023-02-02T03:57:21.246Z,2.97
2023-02-02T03:58:21.248Z,2.98
2023-02-02T03:59:21.224Z,2.98
2023-02-02T04:00:21.216Z,2.98
2023-02-02T04:01:21.209Z,2.98
2023-02-02T04:02:21.183Z,2.99
2023-02-02T04:03:21.323Z,2.99
2023-02-02T04:04:21.168Z,3.01
2023-02-02T04:05:21.152Z,3.02
2023-02-02T04:06:21.132Z,3.01
2023-02-02T04:07:21.128Z,3.01
2023-02-02T04:08:21.109Z,3.02
2023-02-02T04:09:21.100Z,3.04
2023-02-02T04:10:21.096Z,3.02
2023-02-02T04:11:21.071Z,3.04
2023-02-02T04:12:21.050Z,3.04
2023-02-02T04:13:21.030Z,3.04
2023-02-02T04:14:21.042Z,3.05
2023-02-02T04:15:21.011Z,3.05
2023-02-02T04:16:21.131Z,3.05
2023-02-02T04:17:20.989Z,3.07
2023-02-02T04:18:20.978Z,3.07
2023-02-02T04:19:20.983Z,3.05
2023-02-02T04:20:20.961Z,3.07
2023-02-02T04:21:20.954Z,3.05
2023-02-02T04:22:20.940Z,3.05
2023-02-02T04:23:20.911Z,3.05
2023-02-02T04:24:20.921Z,3.05
2023-02-02T04:25:20.888Z,3.02
2023-02-02T04:26:20.902Z,3.02
2023-02-02T04:27:20.875Z,3.01
2023-02-02T04:28:20.852Z,2.99
2023-02-02T04:29:20.870Z,2.99
2023-02-02T04:30:20.820Z,2.98
2023-02-02T04:31:20.849Z,2.97
2023-02-02T04:32:20.813Z,2.94
2023-02-02T04:33:20.776Z,2.92
2023-02-02T04:34:20.794Z,2.89
2023-02-02T04:35:20.811Z,2.87
2023-02-02T04:36:20.765Z,2.87
2023-02-02T04:37:20.726Z,2.86
2023-02-02T04:38:20.743Z,2.86
2023-02-02T04:39:20.717Z,2.84
2023-02-02T04:40:20.696Z,2.84
2023-02-02T04:41:20.689Z,2.80
2023-02-02T04:42:20.674Z,2.81
2023-02-02T04:43:20.660Z,2.80
2023-02-02T04:44:20.653Z,2.79
2023-02-02T04:45:20.624Z,2.79
2023-02-02T04:46:20.629Z,2.79
2023-02-02T04:47:20.604Z,2.80
2023-02-02T04:48:20.595Z,2.80
2023-02-02T04:49:20.764Z,2.80
2023-02-02T04:50:20.563Z,2.80
2023-02-02T04:51:20.557Z,2.77
2023-02-02T04:52:20.543Z,2.77
2023-02-02T04:53:20.524Z,2.77
2023-02-02T04:54:20.532Z,2.77
2023-02-02T04:55:20.507Z,2.77
2023-02-02T04:56:20.508Z,2.77
2023-02-02T04:57:20.471Z,2.77
2023-02-02T04:58:20.467Z,2.79
2023-02-02T04:59:20.467Z,2.79
2023-02-02T05:00:20.442Z,2.79
2023-02-02T05:01:20.470Z,2.79
2023-02-02T05:02:20.415Z,2.81
2023-02-02T05:03:20.405Z,2.80
2023-02-02T05:04:20.437Z,2.81
2023-02-02T05:05:20.381Z,2.83
2023-02-02T05:06:20.373Z,2.84
2023-02-02T05:07:20.353Z,2.84
2023-02-02T05:08:20.339Z,2.84
2023-02-02T05:09:20.331Z,2.86
2023-02-02T05:10:20.322Z,2.84
2023-02-02T05:11:20.302Z,2.86
2023-02-02T05:12:20.289Z,2.86
2023-02-02T05:13:20.274Z,2.84
2023-02-02T05:14:20.281Z,2.84
2023-02-02T05:15:20.240Z,2.84
2023-02-02T05:16:20.289Z,2.86
2023-02-02T05:17:20.234Z,2.84
2023-02-02T05:18:20.214Z,2.86
2023-02-02T05:19:20.198Z,2.84
2023-02-02T05:20:20.190Z,2.84
2023-02-02T05:21:20.190Z,2.84
2023-02-02T05:22:20.161Z,2.83
2023-02-02T05:23:20.136Z,2.84
2023-02-02T05:24:20.144Z,2.83
2023-02-02T05:25:20.125Z,2.83
2023-02-02T05:26:20.155Z,2.83
2023-02-02T05:27:20.095Z,2.84
2023-02-02T05:28:20.077Z,2.83
2023-02-02T05:29:20.074Z,2.83
2023-02-02T05:30:20.046Z,2.84
2023-02-02T05:31:20.158Z,2.84
2023-02-02T05:32:20.042Z,2.84
2023-02-02T05:33:20.015Z,2.86
2023-02-02T05:34:20.014Z,2.86
2023-02-02T05:35:19.992Z,2.86
2023-02-02T05:36:19.985Z,2.84
2023-02-02T05:37:19.955Z,2.84
2023-02-02T05:38:19.944Z,2.86
2023-02-02T05:39:19.955Z,2.86
2023-02-02T05:40:19.924Z,2.86
2023-02-02T05:41:19.902Z,2.87
2023-02-02T05:42:19.896Z,2.89
2023-02-02T05:43:21.584Z,2.89
2023-02-02T05:44:19.898Z,2.92
2023-02-02T05:45:19.853Z,2.90
2023-02-02T05:46:19.912Z,2.90
2023-02-02T05:47:19.832Z,2.94
2023-02-02T05:48:19.830Z,2.95
2023-02-02T05:49:19.844Z,2.95
2023-02-02T05:50:19.837Z,2.98
2023-02-02T05:51:19.774Z,2.98
2023-02-02T05:52:19.770Z,2.98
2023-02-02T05:53:19.761Z,2.99
2023-02-02T05:54:19.788Z,2.99
2023-02-02T05:55:19.720Z,2.98
2023-02-02T05:56:19.725Z,2.99
2023-02-02T05:57:19.701Z,2.98
2023-02-02T05:58:19.709Z,2.99
2023-02-02T05:59:19.679Z,2.98
2023-02-02T06:00:19.668Z,2.98
2023-02-02T06:01:19.651Z,2.98
2023-02-02T06:02:19.652Z,2.99
2023-02-02T06:03:19.728Z,2.99
2023-02-02T06:04:19.628Z,2.99
2023-02-02T06:05:19.598Z,2.99
2023-02-02T06:06:19.587Z,2.99
2023-02-02T06:07:19.581Z,2.98
2023-02-02T06:08:19.569Z,3.01
2023-02-02T06:09:19.652Z,3.01
2023-02-02T06:10:19.555Z,2.99
2023-02-02T06:11:19.517Z,2.99
2023-02-02T06:12:19.520Z,2.99
2023-02-02T06:13:19.496Z,2.99
2023-02-02T06:14:19.504Z,2.99
2023-02-02T06:15:19.475Z,2.99
2023-02-02T06:16:19.465Z,2.98
2023-02-02T06:17:19.446Z,2.99
2023-02-02T06:18:19.425Z,2.98
2023-02-02T06:19:19.451Z,2.98
2023-02-02T06:20:22.216Z,2.98
2023-02-02T06:21:19.395Z,2.97
2023-02-02T06:22:19.383Z,2.95
2023-02-02T06:23:19.375Z,2.95
2023-02-02T06:24:19.387Z,2.95
2023-02-02T06:25:19.379Z,2.97
2023-02-02T06:26:19.409Z,2.95
2023-02-02T06:27:19.326Z,2.95
2023-02-02T06:28:19.303Z,2.94
2023-02-02T06:29:19.317Z,2.95
2023-02-02T06:30:19.292Z,2.95
2023-02-02T06:31:19.583Z,2.95
2023-02-02T06:32:19.256Z,2.95
2023-02-02T06:33:19.242Z,2.95
2023-02-02T06:34:19.241Z,2.95
2023-02-02T06:35:19.241Z,2.95
2023-02-02T06:36:19.233Z,2.95
2023-02-02T06:37:19.194Z,2.98
2023-02-02T06:38:19.185Z,2.98
2023-02-02T06:39:19.160Z,2.98
2023-02-02T06:40:19.164Z,2.99
2023-02-02T06:41:19.144Z,3.01
2023-02-02T06:42:21.561Z,3.02
2023-02-02T06:43:19.123Z,3.05
2023-02-02T06:44:19.106Z,3.05
2023-02-02T06:45:19.100Z,3.07
2023-02-02T06:46:19.136Z,3.07
2023-02-02T06:47:19.069Z,3.08
2023-02-02T06:48:19.045Z,3.08
2023-02-02T06:49:19.045Z,3.10
2023-02-02T06:50:19.040Z,3.12
2023-02-02T06:51:19.019Z,3.13
2023-02-02T06:52:19.001Z,3.13
2023-02-02T06:53:18.988Z,3.13
2023-02-02T06:54:18.983Z,3.13
2023-02-02T06:55:18.976Z,3.15
2023-02-02T06:56:18.944Z,3.17
2023-02-02T06:57:18.940Z,3.19
2023-02-02T06:58:18.922Z,3.19
2023-02-02T06:59:18.907Z,3.19
2023-02-02T07:00:20.450Z,3.19
2023-02-02T07:01:18.921Z,3.19
2023-02-02T07:02:18.968Z,3.20
2023-02-02T07:03:18.865Z,3.22
2023-02-02T07:04:18.837Z,3.22
2023-02-02T07:05:18.846Z,3.23
2023-02-02T07:06:18.828Z,3.23
2023-02-02T07:07:18.828Z,3.25
2023-02-02T07:08:18.785Z,3.26
2023-02-02T07:09:18.794Z,3.28
2023-02-02T07:11:14.206Z,3.30
2023-02-02T07:11:19.753Z,3.31
2023-02-02T07:12:18.734Z,3.31
2023-02-02T07:13:18.737Z,3.34
2023-02-02T07:14:18.710Z,3.35
2023-02-02T07:15:18.715Z,3.35
2023-02-02T07:16:18.712Z,3.37
2023-02-02T07:17:18.685Z,3.41
2023-02-02T07:18:18.657Z,3.41
2023-02-02T07:19:18.653Z,3.42
2023-02-02T07:20:18.643Z,3.42
2023-02-02T07:21:18.640Z,3.45
2023-02-02T07:22:18.603Z,3.46
2023-02-02T07:23:18.596Z,3.50
2023-02-02T07:24:18.588Z,3.52
2023-02-02T07:25:18.582Z,3.52
2023-02-02T07:26:18.562Z,3.54
2023-02-02T07:27:18.554Z,3.54
2023-02-02T07:28:18.571Z,3.56
2023-02-02T07:29:18.521Z,3.56
2023-02-02T07:30:18.528Z,3.59
2023-02-02T07:31:18.576Z,3.60
2023-02-02T07:32:18.483Z,3.62
2023-02-02T07:33:18.470Z,3.62
2023-02-02T07:34:18.450Z,3.62
2023-02-02T07:35:18.451Z,3.62
2023-02-02T07:36:18.426Z,3.67
2023-02-02T07:37:18.428Z,3.64
2023-02-02T07:38:18.400Z,3.68
2023-02-02T07:39:18.429Z,3.70
2023-02-02T07:40:18.433Z,3.70
2023-02-02T07:41:18.368Z,3.71
2023-02-02T07:42:18.349Z,3.74
2023-02-02T07:43:18.340Z,3.75
2023-02-02T07:44:18.319Z,3.74
2023-02-02T07:45:26.673Z,3.72
2023-02-02T07:46:19.339Z,3.74
2023-02-02T07:47:18.289Z,3.75
2023-02-02T07:48:18.272Z,3.75
2023-02-02T07:49:18.270Z,3.78
2023-02-02T07:50:18.257Z,3.78
2023-02-02T07:51:18.272Z,3.81
2023-02-02T07:52:18.222Z,3.81
2023-02-02T07:53:18.207Z,3.84
2023-02-02T07:54:18.199Z,3.86
2023-02-02T07:55:18.201Z,3.88
2023-02-02T07:56:18.168Z,3.88
2023-02-02T07:57:18.155Z,3.89
2023-02-02T07:58:18.146Z,3.89
2023-02-02T07:59:18.125Z,3.90
2023-02-02T08:00:18.136Z,3.93
2023-02-02T08:01:18.125Z,3.95
2023-02-02T08:02:18.096Z,3.98
2023-02-02T08:03:18.162Z,3.99
2023-02-02T08:04:18.061Z,4.00
2023-02-02T08:05:18.067Z,4.04
2023-02-02T08:06:18.041Z,4.06
2023-02-02T08:07:18.036Z,4.06
2023-02-02T08:08:18.003Z,4.08
2023-02-02T08:09:18.002Z,4.07
2023-02-02T08:10:17.995Z,4.08
2023-02-02T08:11:17.979Z,4.11
2023-02-02T08:12:17.953Z,4.10
2023-02-02T08:13:17.947Z,4.11
2023-02-02T08:14:17.935Z,4.13
2023-02-02T08:15:17.932Z,4.13
2023-02-02T08:16:17.942Z,4.13
2023-02-02T08:17:17.893Z,4.11
2023-02-02T08:18:17.871Z,4.14
2023-02-02T08:19:17.861Z,4.16
2023-02-02T08:20:17.879Z,4.14
2023-02-02T08:21:17.860Z,4.16
2023-02-02T08:22:20.180Z,4.16
2023-02-02T08:23:17.801Z,4.18
2023-02-02T08:24:17.801Z,4.17
2023-02-02T08:25:17.884Z,4.18
2023-02-02T08:26:17.920Z,4.21
2023-02-02T08:27:17.763Z,4.20
2023-02-02T08:28:17.739Z,4.21
2023-02-02T08:29:17.732Z,4.21
2023-02-02T08:30:17.712Z,4.25
2023-02-02T08:31:17.752Z,4.25
2023-02-02T08:32:17.681Z,4.28
2023-02-02T08:33:17.688Z,4.29
2023-02-02T08:34:17.657Z,4.29
2023-02-02T08:35:17.654Z,4.34
2023-02-02T08:36:17.655Z,4.34
2023-02-02T08:37:17.619Z,4.35
2023-02-02T08:38:17.608Z,4.36
2023-02-02T08:39:17.621Z,4.39
2023-02-02T08:40:17.639Z,4.39
2023-02-02T08:41:17.603Z,4.43
2023-02-02T08:42:17.556Z,4.44
2023-02-02T08:43:17.546Z,4.47
2023-02-02T08:44:17.525Z,4.49
2023-02-02T08:46:01.998Z,4.50
2023-02-02T08:46:18.904Z,4.50
2023-02-02T08:47:17.493Z,4.53
2023-02-02T08:48:17.467Z,4.54
2023-02-02T08:49:17.455Z,4.56
2023-02-02T08:50:17.447Z,4.57
2023-02-02T08:51:17.461Z,4.57
2023-02-02T08:52:17.438Z,4.59
2023-02-02T08:53:17.405Z,4.62
2023-02-02T08:54:17.421Z,4.62
2023-02-02T08:55:17.388Z,4.64
2023-02-02T08:56:17.376Z,4.65
2023-02-02T08:57:17.352Z,4.68
2023-02-02T08:58:17.349Z,4.68
2023-02-02T08:59:17.323Z,4.69
2023-02-02T09:00:17.313Z,4.71
2023-02-02T09:01:17.436Z,4.72
2023-02-02T09:02:17.324Z,4.74
2023-02-02T09:03:17.276Z,4.74
2023-02-02T09:04:17.261Z,4.75
2023-02-02T09:05:17.249Z,4.75
2023-02-02T09:06:17.262Z,4.77
2023-02-02T09:07:17.219Z,4.77
2023-02-02T09:08:17.279Z,4.77
2023-02-02T09:09:17.191Z,4.75
2023-02-02T09:10:17.180Z,4.75
2023-02-02T09:11:17.188Z,4.77
2023-02-02T09:12:17.150Z,4.77
2023-02-02T09:13:17.145Z,4.75
2023-02-02T09:14:17.127Z,4.77
2023-02-02T09:15:17.110Z,4.77
2023-02-02T09:16:17.142Z,4.79
2023-02-02T09:17:17.080Z,4.80
2023-02-02T09:18:17.063Z,4.83
2023-02-02T09:19:17.123Z,4.84
2023-02-02T09:20:18.563Z,4.83
2023-02-02T09:21:17.042Z,4.84
2023-02-02T09:22:17.018Z,4.86
2023-02-02T09:23:17.005Z,4.86
2023-02-02T09:24:16.989Z,4.88
2023-02-02T09:25:16.987Z,4.88
2023-02-02T09:26:17.054Z,4.87
2023-02-02T09:27:16.959Z,4.88
2023-02-02T09:28:16.926Z,4.90
2023-02-02T09:29:16.930Z,4.91
2023-02-02T09:30:16.932Z,4.93
2023-02-02T09:31:17.027Z,4.94
2023-02-02T09:32:16.905Z,4.96
2023-02-02T09:33:16.869Z,4.99
2023-02-02T09:34:16.852Z,5.01
2023-02-02T09:35:16.852Z,5.01
2023-02-02T09:36:16.961Z,5.02
2023-02-02T09:37:16.815Z,5.04
2023-02-02T09:38:16.797Z,5.05
2023-02-02T09:39:16.883Z,5.04
2023-02-02T09:40:16.770Z,5.06
2023-02-02T09:41:16.759Z,5.08
2023-02-02T09:42:16.768Z,5.09
2023-02-02T09:43:16.746Z,5.11
2023-02-02T09:44:16.715Z,5.11
2023-02-02T09:45:16.711Z,5.12
2023-02-02T09:46:16.815Z,5.14
2023-02-02T09:47:16.701Z,5.15
2023-02-02T09:48:16.660Z,5.17
2023-02-02T09:49:16.745Z,5.19
2023-02-02T09:50:16.641Z,5.20
2023-02-02T09:51:16.639Z,5.22
2023-02-02T09:52:16.614Z,5.24
2023-02-02T09:53:16.611Z,5.26
2023-02-02T09:54:16.579Z,5.30
2023-02-02T09:55:16.583Z,5.33
2023-02-02T09:56:16.549Z,5.33
2023-02-02T09:57:16.554Z,5.37
2023-02-02T09:58:16.532Z,5.40
2023-02-02T09:59:20.540Z,5.41
2023-02-02T10:00:17.500Z,5.44
2023-02-02T10:01:16.595Z,5.45
2023-02-02T10:02:16.478Z,5.47
2023-02-02T10:03:16.470Z,5.47
2023-02-02T10:04:16.467Z,5.49
2023-02-02T10:05:16.449Z,5.51
2023-02-02T10:06:16.418Z,5.52
2023-02-02T10:07:16.419Z,5.52
2023-02-02T10:08:23.063Z,5.55
2023-02-02T10:09:17.401Z,5.55
2023-02-02T10:10:17.740Z,5.52
2023-02-02T10:11:16.363Z,5.55
2023-02-02T10:12:16.371Z,5.56
2023-02-02T10:13:16.337Z,5.55
2023-02-02T10:14:16.306Z,5.56
2023-02-02T10:15:16.306Z,5.56
2023-02-02T10:16:16.308Z,5.56
2023-02-02T10:17:16.286Z,5.58
2023-02-02T10:18:16.340Z,5.56
2023-02-02T10:19:16.247Z,5.56
2023-02-02T10:20:16.226Z,5.58
2023-02-02T10:21:16.230Z,5.58
2023-02-02T10:22:16.224Z,5.58
2023-02-02T10:23:16.195Z,5.59
2023-02-02T10:24:16.176Z,5.58
2023-02-02T10:25:16.181Z,5.59
2023-02-02T10:26:16.154Z,5.60
2023-02-02T10:27:16.157Z,5.60
2023-02-02T10:28:16.125Z,5.63
2023-02-02T10:29:16.150Z,5.63
2023-02-02T10:30:16.097Z,5.66
2023-02-02T10:31:16.330Z,5.67
2023-02-02T10:32:16.115Z,5.70
2023-02-02T10:33:16.061Z,5.74
2023-02-02T10:34:16.055Z,5.75
2023-02-02T10:35:16.053Z,5.78
2023-02-02T10:36:16.035Z,5.80
2023-02-02T10:37:16.034Z,5.83
2023-02-02T10:38:16.013Z,5.84
2023-02-02T10:39:15.991Z,5.88
2023-02-02T10:40:15.978Z,5.92
2023-02-02T10:41:15.964Z,5.93
2023-02-02T10:42:15.972Z,5.96
2023-02-02T10:43:15.930Z,5.99
2023-02-02T10:44:15.929Z,6.02
2023-02-02T10:45:15.911Z,6.03
2023-02-02T10:46:15.919Z,6.03
2023-02-02T10:47:15.899Z,6.06
2023-02-02T10:48:15.874Z,6.06
2023-02-02T10:49:15.849Z,6.08
2023-02-02T10:50:15.904Z,6.10
2023-02-02T10:51:15.822Z,6.10
2023-02-02T10:52:15.858Z,6.10
2023-02-02T10:53:15.804Z,6.11
2023-02-02T10:54:15.804Z,6.13
2023-02-02T10:55:15.770Z,6.13
2023-02-02T10:56:15.770Z,6.14
2023-02-02T10:57:15.771Z,6.16
2023-02-02T10:58:15.741Z,6.14
2023-02-02T10:59:15.720Z,6.16
2023-02-02T11:00:15.725Z,6.14
2023-02-02T11:01:15.736Z,6.17
2023-02-02T11:02:20.961Z,6.16
2023-02-02T11:03:16.679Z,6.16
2023-02-02T11:04:15.802Z,6.14
2023-02-02T11:05:15.694Z,6.14
2023-02-02T11:06:15.633Z,6.14
2023-02-02T11:07:15.618Z,6.13
2023-02-02T11:08:15.630Z,6.14
2023-02-02T11:09:15.605Z,6.13
2023-02-02T11:10:15.589Z,6.14
2023-02-02T11:11:15.575Z,6.14
2023-02-02T11:12:15.568Z,6.16
2023-02-02T11:13:15.609Z,6.14
2023-02-02T11:14:15.548Z,6.16
2023-02-02T11:15:15.519Z,6.17
2023-02-02T11:16:15.580Z,6.17
2023-02-02T11:17:15.478Z,6.19
2023-02-02T11:18:15.499Z,6.20
2023-02-02T11:19:15.457Z,6.20
2023-02-02T11:20:15.503Z,6.19
2023-02-02T11:21:15.442Z,6.20
2023-02-02T11:22:15.428Z,6.20
2023-02-02T11:23:15.411Z,6.20
2023-02-02T11:24:15.398Z,6.19
2023-02-02T11:25:15.381Z,6.21
2023-02-02T11:26:15.371Z,6.25
2023-02-02T11:27:15.364Z,6.25
2023-02-02T11:28:15.344Z,6.24
2023-02-02T11:29:15.322Z,6.24
2023-02-02T11:30:15.320Z,6.21
2023-02-02T11:31:15.371Z,6.24
2023-02-02T11:32:15.284Z,6.21
2023-02-02T11:33:15.327Z,6.24
2023-02-02T11:34:15.264Z,6.20
2023-02-02T11:35:15.243Z,6.19
2023-02-02T11:36:15.235Z,6.17
2023-02-02T11:37:15.223Z,6.17
2023-02-02T11:38:15.204Z,6.14
2023-02-02T11:39:15.216Z,6.13
2023-02-02T11:40:15.183Z,6.11
2023-02-02T11:41:15.162Z,6.08
2023-02-02T11:42:15.152Z,6.06
2023-02-02T11:43:15.160Z,6.06
2023-02-02T11:44:15.140Z,6.06
2023-02-02T11:45:15.114Z,6.06
2023-02-02T11:46:15.122Z,6.03
2023-02-02T11:47:15.093Z,6.05
2023-02-02T11:48:15.069Z,6.03
2023-02-02T11:49:15.067Z,6.05
2023-02-02T11:50:15.095Z,6.06
2023-02-02T11:51:15.108Z,6.08
2023-02-02T11:52:15.024Z,6.08
2023-02-02T11:53:15.010Z,6.10
2023-02-02T11:54:15.009Z,6.11
2023-02-02T11:55:14.992Z,6.11
2023-02-02T11:56:14.976Z,6.10
2023-02-02T11:57:14.948Z,6.10
2023-02-02T11:58:14.944Z,6.10
2023-02-02T11:59:14.931Z,6.10
2023-02-02T12:00:14.908Z,6.10
2023-02-02T12:01:14.900Z,6.10
2023-02-02T12:02:14.935Z,6.11
2023-02-02T12:03:14.868Z,6.11
2023-02-02T12:04:14.919Z,6.11
2023-02-02T12:05:14.861Z,6.11
2023-02-02T12:06:14.836Z,6.16
2023-02-02T12:07:14.836Z,6.17
2023-02-02T12:08:14.819Z,6.17
2023-02-02T12:09:14.798Z,6.17
2023-02-02T12:10:14.788Z,6.19
2023-02-02T12:11:14.770Z,6.17
2023-02-02T12:12:14.766Z,6.17
2023-02-02T12:13:14.746Z,6.16
2023-02-02T12:14:14.737Z,6.16
2023-02-02T12:15:14.725Z,6.14
2023-02-02T12:16:14.736Z,6.16
2023-02-02T12:17:14.695Z,6.13
2023-02-02T12:18:14.688Z,6.13
2023-02-02T12:19:16.347Z,6.14
2023-02-02T12:20:17.359Z,6.14
2023-02-02T12:21:14.695Z,6.14
2023-02-02T12:22:14.629Z,6.14
2023-02-02T12:23:14.604Z,6.16
2023-02-02T12:24:14.626Z,6.19
2023-02-02T12:25:14.588Z,6.21
2023-02-02T12:26:14.587Z,6.27
2023-02-02T12:27:14.589Z,6.32
2023-02-02T12:28:14.554Z,6.33
2023-02-02T12:29:14.573Z,6.35
2023-02-02T12:30:14.541Z,6.38
2023-02-02T12:31:15.074Z,6.38
2023-02-02T12:32:14.493Z,6.39
2023-02-02T12:33:14.475Z,6.39
2023-02-02T12:34:14.503Z,6.40
2023-02-02T12:35:14.452Z,6.39
2023-02-02T12:36:14.454Z,6.42
2023-02-02T12:37:14.449Z,6.40
2023-02-02T12:38:14.417Z,6.40
2023-02-02T12:39:14.409Z,6.42
2023-02-02T12:40:14.398Z,6.42
2023-02-02T12:41:14.381Z,6.43
2023-02-02T12:42:14.364Z,6.45
2023-02-02T12:43:14.362Z,6.45
2023-02-02T12:44:14.350Z,6.46
2023-02-02T12:45:14.333Z,6.50
2023-02-02T12:46:14.413Z,6.51
2023-02-02T12:47:14.294Z,6.54
2023-02-02T12:48:14.283Z,6.57
2023-02-02T12:49:14.436Z,6.58
2023-02-02T12:50:14.253Z,6.61
2023-02-02T12:51:14.241Z,6.61
2023-02-02T12:52:14.244Z,6.61
2023-02-02T12:53:14.211Z,6.60
2023-02-02T12:54:33.036Z,6.63
2023-02-02T12:55:15.202Z,6.61
2023-02-02T12:56:14.207Z,6.57
2023-02-02T12:57:14.178Z,6.54
2023-02-02T12:58:14.174Z,6.53
2023-02-02T12:59:14.148Z,6.48
2023-02-02T13:00:14.125Z,6.45
2023-02-02T13:01:14.124Z,6.40
2023-02-02T13:02:14.127Z,6.39
2023-02-02T13:03:14.085Z,6.36
2023-02-02T13:04:14.078Z,6.36
2023-02-02T13:05:14.081Z,6.36
2023-02-02T13:06:14.046Z,6.33
2023-02-02T13:07:14.030Z,6.32
2023-02-02T13:08:14.024Z,6.30
2023-02-02T13:09:14.016Z,6.30
2023-02-02T13:10:14.004Z,6.28
2023-02-02T13:11:13.978Z,6.27
2023-02-02T13:12:13.979Z,6.27
2023-02-02T13:13:13.950Z,6.28
2023-02-02T13:14:13.954Z,6.30
2023-02-02T13:15:13.944Z,6.30
2023-02-02T13:16:14.020Z,6.32
2023-02-02T13:17:13.901Z,6.33
2023-02-02T13:18:13.914Z,6.35